Unity, Illinois
Current Conditions -  °F | °C
As of 4:15 AM on Thursday 23 Oct 2014 (Local Time) from KCIR Reporting Station
Haze Haze  
Wind Chill: 38°   Ceiling: Unl
Heat Index: 38°   Visibility: 3mi
Dew Point: 35°   Wind: 0mph
Humidity: 91%   Direction: NA
Pressure: 30.21"   Gusts: NA
Location:  37.23°N, 89.27°W
Report Text: KCIR 230915Z AUTO 00000KT 3SM BR CLR 03/02 A3021 RMK AO2 T00320019
Loading
Personal Weather Stations






























Interactive Weather Map
Tropical Storm Tracking
New forecast layout! Learn more

10-Day Weather Forecast

Advertisements
Track Severe Weather on mobile